Time,TemperatureF,DewpointF,PressureIn,WindDirection,WindDirectionDegrees,WindSpeedMPH,WindSpeedGustMPH,Humidity,HourlyPrecipIn,Conditions,Clouds,dailyrainin,SoftwareType,DateUTC
2013-09-02 00:00:00,71.8,69.7,28.82,WSW,254,0.0,9.6,93,0.00,,,0.00,VWS V14.00,2013-09-02 04:00:00,
2013-09-02 00:01:00,71.8,69.7,28.82,North,0,0.0,0.0,93,0.00,,,0.00,VWS V14.00,2013-09-02 04:01:00,
2013-09-02 00:02:00,71.8,69.7,28.82,NW,321,2.2,4.0,93,0.00,,,0.00,VWS V14.00,2013-09-02 04:02:00,
2013-09-02 00:07:00,71.8,69.7,28.82,WNW,283,0.0,4.0,93,0.00,,,0.00,VWS V14.00,2013-09-02 04:07:00,
2013-09-02 00:12:00,72.0,69.8,28.82,West,272,0.0,4.0,93,0.00,,,0.00,VWS V14.00,2013-09-02 04:12:00,
2013-09-02 00:17:00,71.8,69.3,28.82,SW,234,0.0,5.8,92,0.00,,,0.00,VWS V14.00,2013-09-02 04:17:00,
2013-09-02 00:22:00,71.8,69.3,28.82,WSW,240,0.0,5.8,92,0.00,,,0.00,VWS V14.00,2013-09-02 04:22:00,
2013-09-02 00:27:00,71.8,69.3,28.82,WNW,287,0.0,5.8,92,0.00,,,0.00,VWS V14.00,2013-09-02 04:27:00,
2013-09-02 00:32:00,71.8,69.3,28.82,SW,216,0.0,0.0,92,0.00,,,0.00,VWS V14.00,2013-09-02 04:32:00,
2013-09-02 00:37:00,71.8,69.3,28.82,SW,216,0.0,0.0,92,0.00,,,0.00,VWS V14.00,2013-09-02 04:37:00,
2013-09-02 00:42:00,71.8,69.3,28.82,NW,304,0.0,5.4,92,0.00,,,0.00,VWS V14.00,2013-09-02 04:42:00,
2013-09-02 00:47:00,71.8,69.3,28.82,West,279,0.0,5.4,92,0.00,,,0.00,VWS V14.00,2013-09-02 04:47:00,
2013-09-02 00:52:00,71.6,69.2,28.82,SE,137,0.0,5.4,92,0.00,,,0.00,VWS V14.00,2013-09-02 04:52:00,
2013-09-02 00:57:00,71.4,69.0,28.82,WSW,254,0.0,5.4,92,0.00,,,0.00,VWS V14.00,2013-09-02 04:57:00,
2013-09-02 01:02:00,71.2,68.8,28.82,WSW,249,0.0,0.0,92,0.00,,,0.00,VWS V14.00,2013-09-02 05:02:00,
2013-09-02 01:07:00,71.1,68.9,28.82,WSW,258,0.0,2.2,93,0.00,,,0.00,VWS V14.00,2013-09-02 05:07:00,
2013-09-02 01:13:00,70.9,68.8,28.82,West,276,0.0,0.0,93,0.00,,,0.00,VWS V14.00,2013-09-02 05:13:00,
2013-09-02 01:18:00,70.5,68.4,28.82,NNW,329,0.0,0.0,93,0.00,,,0.00,VWS V14.00,2013-09-02 05:18:00,
2013-09-02 01:23:00,70.3,68.2,28.82,SSW,206,0.0,0.0,93,0.00,,,0.00,VWS V14.00,2013-09-02 05:23:00,
2013-09-02 01:28:00,70.2,68.4,28.82,SSW,206,0.0,0.0,94,0.00,,,0.00,VWS V14.00,2013-09-02 05:28:00,
2013-09-02 01:33:00,70.0,68.2,28.82,WNW,293,0.0,4.5,94,0.00,,,0.00,VWS V14.00,2013-09-02 05:33:00,
2013-09-02 01:38:00,69.8,68.0,28.82,NNW,330,0.0,4.5,94,0.00,,,0.00,VWS V14.00,2013-09-02 05:38:00,
2013-09-02 01:43:00,69.6,67.8,28.82,NNW,330,0.0,4.5,94,0.00,,,0.00,VWS V14.00,2013-09-02 05:43:00,
2013-09-02 01:48:00,69.6,67.8,28.82,North,0,0.0,4.5,94,0.00,,,0.00,VWS V14.00,2013-09-02 05:48:00,
2013-09-02 01:53:00,69.4,67.6,28.82,NW,325,0.0,4.5,94,0.00,,,0.00,VWS V14.00,2013-09-02 05:53:00,
2013-09-02 01:58:00,69.3,67.5,28.82,WNW,297,0.0,4.5,94,0.00,,,0.00,VWS V14.00,2013-09-02 05:58:00,
2013-09-02 02:03:00,69.1,67.3,28.82,NNW,336,0.0,0.0,94,0.00,,,0.00,VWS V14.00,2013-09-02 06:03:00,
2013-09-02 02:08:00,69.1,67.3,28.82,NNW,330,0.0,4.9,94,0.00,,,0.00,VWS V14.00,2013-09-02 06:08:00,
2013-09-02 02:13:00,68.9,67.1,28.82,WNW,301,0.0,4.9,94,0.00,,,0.00,VWS V14.00,2013-09-02 06:13:00,
2013-09-02 02:18:00,68.9,67.1,28.82,NE,38,0.0,4.9,94,0.00,,,0.00,VWS V14.00,2013-09-02 06:18:00,
2013-09-02 02:23:00,68.9,67.1,28.82,NE,39,0.0,4.9,94,0.00,,,0.00,VWS V14.00,2013-09-02 06:23:00,
2013-09-02 02:28:00,68.7,66.9,28.82,NE,45,0.0,4.9,94,0.00,,,0.00,VWS V14.00,2013-09-02 06:28:00,
2013-09-02 02:33:00,68.5,66.8,28.82,WSW,252,0.0,0.0,94,0.00,,,0.00,VWS V14.00,2013-09-02 06:33:00,
2013-09-02 02:38:00,68.4,66.6,28.82,WSW,252,0.0,0.0,94,0.00,,,0.00,VWS V14.00,2013-09-02 06:38:00,
2013-09-02 02:43:00,68.4,66.6,28.82,WSW,252,0.0,0.0,94,0.00,,,0.00,VWS V14.00,2013-09-02 06:43:00,
2013-09-02 02:48:00,68.2,66.4,28.82,WSW,252,0.0,0.0,94,0.00,,,0.00,VWS V14.00,2013-09-02 06:48:00,
2013-09-02 02:53:00,68.2,66.4,28.82,South,172,0.0,0.0,94,0.00,,,0.00,VWS V14.00,2013-09-02 06:53:00,
2013-09-02 02:58:00,68.2,66.4,28.82,SSE,158,0.0,0.0,94,0.00,,,0.00,VWS V14.00,2013-09-02 06:58:00,
2013-09-02 03:03:00,68.2,66.4,28.82,WNW,293,0.0,2.2,94,0.00,,,0.00,VWS V14.00,2013-09-02 07:03:00,
2013-09-02 03:08:00,68.0,66.2,28.82,West,266,0.0,2.2,94,0.00,,,0.00,VWS V14.00,2013-09-02 07:08:00,
2013-09-02 03:13:00,67.8,66.3,28.82,NW,320,0.0,2.2,95,0.00,,,0.00,VWS V14.00,2013-09-02 07:13:00,
2013-09-02 03:18:00,67.8,66.3,28.82,NW,304,0.0,2.2,95,0.00,,,0.00,VWS V14.00,2013-09-02 07:18:00,
2013-09-02 03:23:00,68.0,66.5,28.82,NW,318,0.0,2.2,95,0.00,,,0.00,VWS V14.00,2013-09-02 07:23:00,
2013-09-02 03:28:00,68.0,66.5,28.82,North,4,0.0,3.6,95,0.00,,,0.00,VWS V14.00,2013-09-02 07:28:00,
2013-09-02 03:33:00,67.8,66.3,28.82,SSW,202,0.0,2.2,95,0.00,,,0.00,VWS V14.00,2013-09-02 07:33:00,
2013-09-02 03:38:00,68.0,66.5,28.82,SSE,160,0.0,2.2,95,0.00,,,0.00,VWS V14.00,2013-09-02 07:38:00,
2013-09-02 03:43:00,67.8,66.3,28.82,SSW,196,0.0,2.2,95,0.00,,,0.00,VWS V14.00,2013-09-02 07:43:00,
2013-09-02 03:48:00,67.8,66.3,28.79,WSW,246,0.0,2.2,95,0.00,,,0.00,VWS V14.00,2013-09-02 07:48:00,
2013-09-02 03:53:00,67.8,66.0,28.79,WSW,245,0.0,2.2,94,0.00,,,0.00,VWS V14.00,2013-09-02 07:53:00,
2013-09-02 03:58:00,67.6,65.9,28.79,SSW,198,0.0,2.7,94,0.00,,,0.00,VWS V14.00,2013-09-02 07:58:00,
2013-09-02 04:03:00,67.6,65.9,28.79,SW,232,0.0,3.6,94,0.00,,,0.00,VWS V14.00,2013-09-02 08:03:00,
2013-09-02 04:08:00,67.6,65.9,28.79,SW,232,0.0,3.6,94,0.00,,,0.00,VWS V14.00,2013-09-02 08:08:00,
2013-09-02 04:13:00,67.5,65.7,28.79,SW,232,0.0,3.6,94,0.00,,,0.00,VWS V14.00,2013-09-02 08:13:00,
2013-09-02 04:18:00,67.5,66.0,28.79,WSW,238,0.0,3.6,95,0.00,,,0.00,VWS V14.00,2013-09-02 08:18:00,
2013-09-02 04:23:00,67.5,66.0,28.79,WSW,238,0.0,3.6,95,0.00,,,0.00,VWS V14.00,2013-09-02 08:23:00,
2013-09-02 04:28:00,67.5,66.0,28.79,WNW,283,0.0,3.6,95,0.00,,,0.00,VWS V14.00,2013-09-02 08:28:00,
2013-09-02 04:33:00,67.3,65.8,28.82,WNW,292,0.0,0.0,95,0.00,,,0.00,VWS V14.00,2013-09-02 08:33:00,
2013-09-02 04:38:00,67.3,65.8,28.82,SW,227,0.0,4.0,95,0.00,,,0.00,VWS V14.00,2013-09-02 08:38:00,
2013-09-02 04:43:00,67.1,65.6,28.82,SW,227,0.0,4.0,95,0.00,,,0.00,VWS V14.00,2013-09-02 08:43:00,
2013-09-02 04:48:00,66.9,65.4,28.82,NW,312,0.0,4.0,95,0.00,,,0.00,VWS V14.00,2013-09-02 08:48:00,
2013-09-02 04:53:00,66.9,65.8,28.82,NW,312,0.0,4.0,96,0.00,,,0.00,VWS V14.00,2013-09-02 08:53:00,
2013-09-02 04:58:00,66.7,65.6,28.82,NW,312,0.0,4.0,96,0.00,,,0.00,VWS V14.00,2013-09-02 08:58:00,
2013-09-02 05:03:00,66.9,65.8,28.82,NW,312,0.0,0.0,96,0.00,,,0.00,VWS V14.00,2013-09-02 09:03:00,
2013-09-02 05:08:00,66.9,66.0,28.82,WNW,295,0.0,0.0,97,0.00,,,0.00,VWS V14.00,2013-09-02 09:08:00,
2013-09-02 05:13:00,66.9,66.0,28.82,WNW,295,0.0,0.0,97,0.00,,,0.00,VWS V14.00,2013-09-02 09:13:00,
2013-09-02 05:18:00,66.9,66.0,28.82,WNW,295,0.0,0.0,97,0.00,,,0.00,VWS V14.00,2013-09-02 09:18:00,
2013-09-02 05:23:00,66.9,66.0,28.82,WNW,295,0.0,0.0,97,0.00,,,0.00,VWS V14.00,2013-09-02 09:23:00,
2013-09-02 05:28:00,66.7,65.6,28.82,WNW,294,0.0,0.0,96,0.00,,,0.00,VWS V14.00,2013-09-02 09:28:00,
2013-09-02 05:33:00,66.9,66.0,28.82,WSW,246,0.0,0.0,97,0.00,,,0.00,VWS V14.00,2013-09-02 09:33:00,
2013-09-02 05:38:00,67.1,66.2,28.82,NNE,29,0.0,0.0,97,0.00,,,0.00,VWS V14.00,2013-09-02 09:38:00,
2013-09-02 05:43:00,67.1,66.2,28.82,SW,235,0.0,3.6,97,0.00,,,0.00,VWS V14.00,2013-09-02 09:43:00,
2013-09-02 05:48:00,67.3,66.4,28.82,NNW,344,0.0,3.6,97,0.00,,,0.00,VWS V14.00,2013-09-02 09:48:00,
2013-09-02 05:53:00,67.3,66.4,28.82,West,268,0.0,3.6,97,0.00,,,0.00,VWS V14.00,2013-09-02 09:53:00,
2013-09-02 05:58:00,67.5,66.6,28.82,WSW,241,0.0,4.0,97,0.00,,,0.00,VWS V14.00,2013-09-02 09:58:00,
2013-09-02 06:03:00,67.5,66.6,28.82,WNW,291,0.0,0.0,97,0.00,,,0.00,VWS V14.00,2013-09-02 10:03:00,
2013-09-02 06:08:00,67.5,66.6,28.82,WNW,300,0.0,0.0,97,0.00,,,0.00,VWS V14.00,2013-09-02 10:08:00,
2013-09-02 06:13:00,67.5,66.6,28.82,NW,305,0.0,0.0,97,0.00,,,0.00,VWS V14.00,2013-09-02 10:13:00,
2013-09-02 06:18:00,67.6,66.8,28.82,WSW,257,0.0,2.2,97,0.00,,,0.00,VWS V14.00,2013-09-02 10:18:00,
2013-09-02 06:23:00,67.6,66.8,28.82,NW,312,0.0,2.2,97,0.00,,,0.00,VWS V14.00,2013-09-02 10:23:00,
2013-09-02 06:28:00,67.6,66.8,28.82,NE,43,0.0,2.2,97,0.00,,,0.00,VWS V14.00,2013-09-02 10:28:00,
2013-09-02 06:33:00,67.6,66.8,28.82,North,353,0.0,0.0,97,0.00,,,0.00,VWS V14.00,2013-09-02 10:33:00,
2013-09-02 06:38:00,67.8,66.9,28.82,North,353,0.0,0.0,97,0.00,,,0.00,VWS V14.00,2013-09-02 10:38:00,
2013-09-02 06:43:00,67.8,66.9,28.82,NNE,28,0.0,0.0,97,0.00,,,0.00,VWS V14.00,2013-09-02 10:43:00,
2013-09-02 06:48:00,67.8,66.9,28.85,East,92,2.2,4.0,97,0.00,,,0.00,VWS V14.00,2013-09-02 10:48:00,
2013-09-02 06:53:00,67.8,66.6,28.85,West,264,0.0,4.0,96,0.00,,,0.00,VWS V14.00,2013-09-02 10:53:00,
2013-09-02 06:58:00,67.8,66.6,28.85,NE,41,0.0,6.3,96,0.00,,,0.00,VWS V14.00,2013-09-02 10:58:00,
2013-09-02 07:03:00,67.8,66.6,28.85,NW,313,0.0,0.0,96,0.00,,,0.00,VWS V14.00,2013-09-02 11:03:00,
2013-09-02 07:08:00,67.8,66.6,28.85,NNW,330,0.0,0.0,96,0.00,,,0.00,VWS V14.00,2013-09-02 11:08:00,
2013-09-02 07:13:00,67.8,66.3,28.85,SW,234,3.6,3.6,95,0.00,,,0.00,VWS V14.00,2013-09-02 11:13:00,
2013-09-02 07:18:00,67.8,66.3,28.85,North,8,0.0,4.0,95,0.00,,,0.00,VWS V14.00,2013-09-02 11:18:00,
2013-09-02 07:23:00,67.8,66.0,28.85,East,79,0.0,4.0,94,0.00,,,0.00,VWS V14.00,2013-09-02 11:23:00,
2013-09-02 07:28:00,67.6,65.9,28.85,East,79,0.0,4.0,94,0.00,,,0.00,VWS V14.00,2013-09-02 11:28:00,
2013-09-02 07:33:00,67.6,65.9,28.85,NE,41,0.0,4.9,94,0.00,,,0.00,VWS V14.00,2013-09-02 11:33:00,
2013-09-02 07:38:00,67.6,65.6,28.85,NNE,19,0.0,4.9,93,0.00,,,0.00,VWS V14.00,2013-09-02 11:38:00,
2013-09-02 07:43:00,67.6,65.2,28.85,NNW,337,3.6,4.9,92,0.00,,,0.00,VWS V14.00,2013-09-02 11:43:00,
2013-09-02 07:48:00,67.6,64.9,28.85,NE,42,2.7,5.8,91,0.00,,,0.00,VWS V14.00,2013-09-02 11:48:00,
2013-09-02 07:53:00,67.5,64.4,28.85,WNW,292,0.0,5.8,90,0.00,,,0.00,VWS V14.00,2013-09-02 11:53:00,
2013-09-02 07:58:00,67.5,64.1,28.85,West,270,0.0,5.8,89,0.00,,,0.00,VWS V14.00,2013-09-02 11:58:00,
2013-09-02 08:03:00,67.3,63.9,28.85,ESE,114,0.0,4.9,89,0.00,,,0.00,VWS V14.00,2013-09-02 12:03:00,
2013-09-02 08:08:00,67.3,63.9,28.85,ENE,70,2.7,5.4,89,0.00,,,0.00,VWS V14.00,2013-09-02 12:08:00,
2013-09-02 08:13:00,67.1,63.4,28.85,North,4,0.0,5.4,88,0.00,,,0.00,VWS V14.00,2013-09-02 12:13:00,
2013-09-02 08:18:00,66.9,63.3,28.88,NW,316,0.0,5.4,88,0.00,,,0.00,VWS V14.00,2013-09-02 12:18:00,
2013-09-02 08:23:00,66.9,63.3,28.88,WSW,245,6.7,6.7,88,0.00,,,0.00,VWS V14.00,2013-09-02 12:23:00,
2013-09-02 08:28:00,67.1,63.8,28.88,NE,42,0.0,6.7,89,0.00,,,0.00,VWS V14.00,2013-09-02 12:28:00,
2013-09-02 08:33:00,67.1,63.8,28.88,NNE,29,0.0,4.9,89,0.00,,,0.00,VWS V14.00,2013-09-02 12:33:00,
2013-09-02 08:38:00,67.1,63.8,28.88,NE,46,0.0,4.9,89,0.00,,,0.00,VWS V14.00,2013-09-02 12:38:00,
2013-09-02 08:43:00,66.9,63.6,28.88,WSW,257,0.0,4.9,89,0.00,,,0.00,VWS V14.00,2013-09-02 12:43:00,
2013-09-02 08:48:00,67.1,63.8,28.88,ENE,74,0.0,4.9,89,0.00,,,0.00,VWS V14.00,2013-09-02 12:48:00,
2013-09-02 08:53:00,67.3,63.9,28.88,West,275,2.7,4.9,89,0.00,,,0.00,VWS V14.00,2013-09-02 12:53:00,
2013-09-02 08:59:00,67.5,64.1,28.88,South,185,0.0,4.9,89,0.00,,,0.00,VWS V14.00,2013-09-02 12:59:00,
2013-09-02 09:04:00,67.3,63.6,28.88,West,270,0.0,6.3,88,0.00,,,0.00,VWS V14.00,2013-09-02 13:04:00,
2013-09-02 09:09:00,67.5,63.8,28.88,ESE,102,2.7,6.3,88,0.00,,,0.00,VWS V14.00,2013-09-02 13:09:00,
2013-09-02 09:14:00,67.3,63.3,28.88,NNW,346,3.6,6.3,87,0.00,,,0.00,VWS V14.00,2013-09-02 13:14:00,
2013-09-02 09:19:00,67.5,63.5,28.88,North,8,3.6,6.3,87,0.00,,,0.00,VWS V14.00,2013-09-02 13:19:00,
2013-09-02 09:24:00,67.3,63.3,28.88,NNE,21,2.2,6.3,87,0.00,,,0.00,VWS V14.00,2013-09-02 13:24:00,
2013-09-02 09:29:00,67.1,62.8,28.88,WNW,285,4.9,7.2,86,0.00,,,0.00,VWS V14.00,2013-09-02 13:29:00,
2013-09-02 09:34:00,67.1,62.5,28.88,NNE,32,0.0,6.3,85,0.00,,,0.00,VWS V14.00,2013-09-02 13:34:00,
2013-09-02 09:39:00,67.1,62.1,28.88,NE,43,0.0,6.3,84,0.00,,,0.00,VWS V14.00,2013-09-02 13:39:00,
2013-09-02 09:44:00,67.3,61.6,28.88,NNW,331,2.2,6.3,82,0.00,,,0.00,VWS V14.00,2013-09-02 13:44:00,
2013-09-02 09:49:00,67.3,61.3,28.91,NW,321,0.0,6.3,81,0.00,,,0.00,VWS V14.00,2013-09-02 13:49:00,
2013-09-02 09:54:00,67.3,61.3,28.91,North,0,0.0,6.3,81,0.00,,,0.00,VWS V14.00,2013-09-02 13:54:00,
2013-09-02 09:59:00,68.2,61.8,28.91,NNW,334,0.0,6.3,80,0.00,,,0.00,VWS V14.00,2013-09-02 13:59:00,
2013-09-02 10:04:00,68.4,61.2,28.91,NNE,33,2.7,4.9,78,0.00,,,0.00,VWS V14.00,2013-09-02 14:04:00,
2013-09-02 10:09:00,67.6,59.4,28.91,NNW,336,4.9,6.3,75,0.00,,,0.00,VWS V14.00,2013-09-02 14:09:00,
2013-09-02 10:14:00,67.6,59.4,28.91,ENE,63,5.4,8.1,75,0.00,,,0.00,VWS V14.00,2013-09-02 14:14:00,
2013-09-02 10:19:00,68.5,60.7,28.91,West,273,0.0,8.1,76,0.00,,,0.00,VWS V14.00,2013-09-02 14:19:00,
2013-09-02 10:24:00,68.5,59.5,28.91,NE,45,2.7,8.1,73,0.00,,,0.00,VWS V14.00,2013-09-02 14:24:00,
2013-09-02 10:29:00,69.3,59.5,28.91,North,353,3.1,8.1,71,0.00,,,0.00,VWS V14.00,2013-09-02 14:29:00,
2013-09-02 10:34:00,69.8,60.0,28.91,West,259,2.2,8.1,71,0.00,,,0.00,VWS V14.00,2013-09-02 14:34:00,
2013-09-02 10:39:00,70.7,60.5,28.91,NE,49,2.7,8.1,70,0.00,,,0.00,VWS V14.00,2013-09-02 14:39:00,
2013-09-02 10:44:00,70.5,59.5,28.91,NW,321,3.6,8.1,68,0.00,,,0.00,VWS V14.00,2013-09-02 14:44:00,
2013-09-02 10:49:00,70.5,58.6,28.91,WSW,243,3.6,8.1,66,0.00,,,0.00,VWS V14.00,2013-09-02 14:49:00,
2013-09-02 10:54:00,71.2,59.7,28.91,NE,41,3.1,8.1,67,0.00,,,0.00,VWS V14.00,2013-09-02 14:54:00,
2013-09-02 10:59:00,71.6,60.1,28.91,WNW,285,2.7,8.7,67,0.00,,,0.00,VWS V14.00,2013-09-02 14:59:00,
2013-09-02 11:04:00,72.1,59.7,28.91,East,84,2.2,4.0,65,0.00,,,0.00,VWS V14.00,2013-09-02 15:04:00,
2013-09-02 11:09:00,72.1,59.3,28.91,NNW,337,2.2,5.4,64,0.00,,,0.00,VWS V14.00,2013-09-02 15:09:00,
2013-09-02 11:14:00,72.5,60.1,28.91,ESE,103,0.0,8.3,65,0.00,,,0.00,VWS V14.00,2013-09-02 15:14:00,
2013-09-02 11:19:00,73.0,60.2,28.91,SW,227,2.7,8.3,64,0.00,,,0.00,VWS V14.00,2013-09-02 15:19:00,
2013-09-02 11:24:00,73.6,61.1,28.91,WSW,253,0.0,8.3,65,0.00,,,0.00,VWS V14.00,2013-09-02 15:24:00,
2013-09-02 11:29:00,74.1,60.3,28.91,North,3,2.7,8.3,62,0.00,,,0.00,VWS V14.00,2013-09-02 15:29:00,
2013-09-02 11:34:00,73.9,60.6,28.91,North,349,0.0,3.6,63,0.00,,,0.00,VWS V14.00,2013-09-02 15:34:00,
2013-09-02 11:39:00,74.1,59.8,28.91,East,97,2.7,5.4,61,0.00,,,0.00,VWS V14.00,2013-09-02 15:39:00,
2013-09-02 11:44:00,74.3,59.5,28.91,SSE,150,0.0,5.4,60,0.00,,,0.00,VWS V14.00,2013-09-02 15:44:00,
2013-09-02 11:49:00,74.7,59.9,28.91,North,10,0.0,5.4,60,0.00,,,0.00,VWS V14.00,2013-09-02 15:49:00,
2013-09-02 11:54:00,74.7,59.4,28.91,West,278,3.6,5.8,59,0.00,,,0.00,VWS V14.00,2013-09-02 15:54:00,
2013-09-02 11:59:00,75.0,59.7,28.91,West,266,4.9,5.8,59,0.00,,,0.00,VWS V14.00,2013-09-02 15:59:00,
2013-09-02 12:04:00,74.3,57.1,28.91,North,2,4.9,5.8,55,0.00,,,0.00,VWS V14.00,2013-09-02 16:04:00,
2013-09-02 12:09:00,75.2,59.4,28.91,WSW,247,0.0,6.3,58,0.00,,,0.00,VWS V14.00,2013-09-02 16:09:00,
2013-09-02 12:14:00,75.9,60.1,28.91,West,271,3.1,6.3,58,0.00,,,0.00,VWS V14.00,2013-09-02 16:14:00,
2013-09-02 12:19:00,75.9,59.1,28.91,WNW,300,2.7,6.3,56,0.00,,,0.00,VWS V14.00,2013-09-02 16:19:00,
2013-09-02 12:24:00,76.8,60.5,28.91,NW,308,2.2,6.3,57,0.00,,,0.00,VWS V14.00,2013-09-02 16:24:00,
2013-09-02 12:29:00,76.6,59.8,28.91,East,87,0.0,6.3,56,0.00,,,0.00,VWS V14.00,2013-09-02 16:29:00,
2013-09-02 12:34:00,76.6,60.3,28.91,NE,38,0.0,3.6,57,0.00,,,0.00,VWS V14.00,2013-09-02 16:34:00,
2013-09-02 12:39:00,76.6,58.8,28.91,West,272,6.3,6.3,54,0.00,,,0.00,VWS V14.00,2013-09-02 16:39:00,
2013-09-02 12:44:00,76.5,59.1,28.91,South,184,0.0,6.7,55,0.00,,,0.00,VWS V14.00,2013-09-02 16:44:00,
2013-09-02 12:49:00,76.1,58.8,28.91,NNE,31,2.7,6.7,55,0.00,,,0.00,VWS V14.00,2013-09-02 16:49:00,
2013-09-02 12:54:00,77.7,61.3,28.91,SE,145,0.0,6.7,57,0.00,,,0.00,VWS V14.00,2013-09-02 16:54:00,
2013-09-02 12:59:00,77.4,58.9,28.91,ESE,109,0.0,6.7,53,0.00,,,0.00,VWS V14.00,2013-09-02 16:59:00,
2013-09-02 13:04:00,78.4,59.9,28.91,NNE,29,0.0,3.1,53,0.00,,,0.00,VWS V14.00,2013-09-02 17:04:00,
2013-09-02 13:09:00,76.6,57.2,28.91,North,357,2.7,5.4,51,0.00,,,0.00,VWS V14.00,2013-09-02 17:09:00,
2013-09-02 13:14:00,77.9,58.9,28.91,NW,304,2.7,6.3,52,0.00,,,0.00,VWS V14.00,2013-09-02 17:14:00,
2013-09-02 13:19:00,79.0,59.9,28.91,NNE,22,0.0,6.3,52,0.00,,,0.00,VWS V14.00,2013-09-02 17:19:00,
2013-09-02 13:24:00,79.0,58.8,28.91,North,0,0.0,6.3,50,0.00,,,0.00,VWS V14.00,2013-09-02 17:24:00,
2013-09-02 13:29:00,77.2,56.6,28.91,WNW,301,4.0,6.3,49,0.00,,,0.00,VWS V14.00,2013-09-02 17:29:00,
2013-09-02 13:34:00,78.8,59.2,28.91,ESE,105,0.0,3.6,51,0.00,,,0.00,VWS V14.00,2013-09-02 17:34:00,
2013-09-02 13:39:00,79.5,59.8,28.91,NNE,13,0.0,6.3,51,0.00,,,0.00,VWS V14.00,2013-09-02 17:39:00,
2013-09-02 13:44:00,79.7,58.3,28.91,East,97,2.7,6.3,48,0.00,,,0.00,VWS V14.00,2013-09-02 17:44:00,
2013-09-02 13:49:00,79.3,58.0,28.91,South,179,2.7,6.3,48,0.00,,,0.00,VWS V14.00,2013-09-02 17:49:00,
2013-09-02 13:54:00,77.4,55.6,28.91,NNW,331,0.0,7.6,47,0.00,,,0.00,VWS V14.00,2013-09-02 17:54:00,
2013-09-02 13:59:00,79.0,58.2,28.91,WSW,248,2.7,7.6,49,0.00,,,0.00,VWS V14.00,2013-09-02 17:59:00,
2013-09-02 14:04:00,79.3,59.1,28.91,North,0,0.0,4.0,50,0.00,,,0.00,VWS V14.00,2013-09-02 18:04:00,
2013-09-02 14:09:00,77.4,56.2,28.91,SE,124,2.2,4.9,48,0.00,,,0.00,VWS V14.00,2013-09-02 18:09:00,
2013-09-02 14:14:00,77.4,57.3,28.91,WSW,246,0.0,6.3,50,0.00,,,0.00,VWS V14.00,2013-09-02 18:14:00,
2013-09-02 14:19:00,75.9,56.5,28.91,NE,45,3.6,6.3,51,0.00,,,0.00,VWS V14.00,2013-09-02 18:19:00,
2013-09-02 14:24:00,74.3,55.0,28.91,North,9,0.0,6.3,51,0.00,,,0.00,VWS V14.00,2013-09-02 18:24:00,
2013-09-02 14:29:00,74.7,56.4,28.91,WSW,256,2.7,6.3,53,0.00,,,0.00,VWS V14.00,2013-09-02 18:29:00,
2013-09-02 14:34:00,77.2,59.3,28.91,SSW,203,0.0,4.9,54,0.00,,,0.00,VWS V14.00,2013-09-02 18:34:00,
2013-09-02 14:39:00,78.6,59.5,28.91,NNE,25,0.0,4.9,52,0.00,,,0.00,VWS V14.00,2013-09-02 18:39:00,
2013-09-02 14:44:00,78.6,57.9,28.91,NNW,333,2.2,8.1,49,0.00,,,0.00,VWS V14.00,2013-09-02 18:44:00,
2013-09-02 14:49:00,75.9,54.8,28.91,NNE,27,0.0,8.1,48,0.00,,,0.00,VWS V14.00,2013-09-02 18:49:00,
2013-09-02 14:54:00,77.4,56.2,28.91,NW,304,5.8,8.1,48,0.00,,,0.00,VWS V14.00,2013-09-02 18:54:00,
2013-09-02 14:59:00,78.8,57.5,28.91,North,4,3.1,8.1,48,0.00,,,0.00,VWS V14.00,2013-09-02 18:59:00,
2013-09-02 15:04:00,79.2,57.8,28.91,East,85,0.0,7.6,48,0.00,,,0.00,VWS V14.00,2013-09-02 19:04:00,
2013-09-02 15:09:00,79.9,57.9,28.91,WSW,250,0.0,7.6,47,0.00,,,0.00,VWS V14.00,2013-09-02 19:09:00,
2013-09-02 15:14:00,78.6,57.9,28.91,NE,41,0.0,7.6,49,0.00,,,0.00,VWS V14.00,2013-09-02 19:14:00,
2013-09-02 15:19:00,76.8,56.2,28.91,SSE,151,4.0,7.6,49,0.00,,,0.00,VWS V14.00,2013-09-02 19:19:00,
2013-09-02 15:24:00,75.4,53.8,28.91,ENE,67,4.0,7.6,47,0.00,,,0.00,VWS V14.00,2013-09-02 19:24:00,
2013-09-02 15:29:00,74.1,53.8,28.91,ESE,123,3.1,7.6,49,0.00,,,0.00,VWS V14.00,2013-09-02 19:29:00,
2013-09-02 15:34:00,76.5,55.3,28.91,WSW,242,2.7,8.1,48,0.00,,,0.00,VWS V14.00,2013-09-02 19:34:00,
2013-09-02 15:39:00,76.5,55.3,28.91,North,357,0.0,8.7,48,0.00,,,0.00,VWS V14.00,2013-09-02 19:39:00,
2013-09-02 15:44:00,77.0,57.5,28.91,North,0,0.0,8.7,51,0.00,,,0.00,VWS V14.00,2013-09-02 19:44:00,
2013-09-02 15:49:00,75.7,54.7,28.91,North,349,3.6,8.7,48,0.00,,,0.00,VWS V14.00,2013-09-02 19:49:00,
2013-09-02 15:54:00,74.7,53.7,28.91,West,265,6.3,8.7,48,0.00,,,0.00,VWS V14.00,2013-09-02 19:54:00,
2013-09-02 15:59:00,75.0,55.1,28.91,NNW,341,0.0,8.7,50,0.00,,,0.00,VWS V14.00,2013-09-02 19:59:00,
2013-09-02 16:04:00,74.5,54.1,28.91,SSW,206,3.1,5.8,49,0.00,,,0.00,VWS V14.00,2013-09-02 20:04:00,
2013-09-02 16:09:00,74.7,55.3,28.91,North,357,0.0,5.8,51,0.00,,,0.00,VWS V14.00,2013-09-02 20:09:00,
2013-09-02 16:14:00,74.7,55.9,28.91,North,6,3.1,5.8,52,0.00,,,0.00,VWS V14.00,2013-09-02 20:14:00,
2013-09-02 16:19:00,74.3,55.0,28.91,NNW,341,0.0,5.8,51,0.00,,,0.00,VWS V14.00,2013-09-02 20:19:00,
2013-09-02 16:24:00,73.2,54.0,28.91,NNW,346,0.0,8.1,51,0.00,,,0.00,VWS V14.00,2013-09-02 20:24:00,
2013-09-02 16:29:00,72.5,54.4,28.91,NW,324,3.1,8.1,53,0.00,,,0.00,VWS V14.00,2013-09-02 20:29:00,
2013-09-02 16:34:00,72.3,54.2,28.91,WSW,243,4.0,6.3,53,0.00,,,0.00,VWS V14.00,2013-09-02 20:34:00,
2013-09-02 16:39:00,72.7,55.6,28.91,North,6,3.1,6.3,55,0.00,,,0.00,VWS V14.00,2013-09-02 20:39:00,
2013-09-02 16:44:00,72.1,53.6,28.91,NE,43,5.8,7.6,52,0.00,,,0.00,VWS V14.00,2013-09-02 20:44:00,
2013-09-02 16:49:00,72.1,54.6,28.91,WNW,293,0.0,7.6,54,0.00,,,0.00,VWS V14.00,2013-09-02 20:49:00,
2013-09-02 16:54:00,72.1,54.6,28.91,ENE,68,2.7,7.6,54,0.00,,,0.00,VWS V14.00,2013-09-02 20:54:00,
2013-09-02 16:59:00,71.8,54.3,28.91,NW,326,5.8,7.6,54,0.00,,,0.00,VWS V14.00,2013-09-02 20:59:00,
2013-09-02 17:04:00,71.2,54.3,28.91,WNW,298,3.6,3.6,55,0.00,,,0.00,VWS V14.00,2013-09-02 21:04:00,
2013-09-02 17:09:00,71.2,55.2,28.91,ENE,70,2.2,5.4,57,0.00,,,0.00,VWS V14.00,2013-09-02 21:09:00,
2013-09-02 17:14:00,71.4,53.9,28.91,NNW,344,2.7,10.1,54,0.00,,,0.00,VWS V14.00,2013-09-02 21:14:00,
2013-09-02 17:19:00,71.4,54.9,28.91,SSE,148,0.0,10.1,56,0.00,,,0.00,VWS V14.00,2013-09-02 21:19:00,
2013-09-02 17:24:00,71.1,55.1,28.91,NW,308,2.2,10.1,57,0.00,,,0.00,VWS V14.00,2013-09-02 21:24:00,
2013-09-02 17:29:00,71.1,54.6,28.91,SW,230,0.0,10.1,56,0.00,,,0.00,VWS V14.00,2013-09-02 21:29:00,
2013-09-02 17:34:00,71.2,55.7,28.91,WSW,246,2.7,5.4,58,0.00,,,0.00,VWS V14.00,2013-09-02 21:34:00,
2013-09-02 17:39:00,70.9,55.4,28.91,North,7,2.2,5.4,58,0.00,,,0.00,VWS V14.00,2013-09-02 21:39:00,
2013-09-02 17:44:00,70.7,55.7,28.91,North,4,0.0,6.3,59,0.00,,,0.00,VWS V14.00,2013-09-02 21:44:00,
2013-09-02 17:49:00,71.6,55.6,28.91,WNW,297,0.0,6.3,57,0.00,,,0.00,VWS V14.00,2013-09-02 21:49:00,
2013-09-02 17:54:00,71.6,56.1,28.91,NE,47,3.6,6.3,58,0.00,,,0.00,VWS V14.00,2013-09-02 21:54:00,
2013-09-02 17:59:00,71.6,56.5,28.91,SSE,154,0.0,6.3,59,0.00,,,0.00,VWS V14.00,2013-09-02 21:59:00,
2013-09-02 18:04:00,70.5,55.0,28.91,North,357,2.7,6.3,58,0.00,,,0.00,VWS V14.00,2013-09-02 22:04:00,
2013-09-02 18:09:00,70.0,55.0,28.91,NW,304,0.0,6.3,59,0.00,,,0.00,VWS V14.00,2013-09-02 22:09:00,
2013-09-02 18:14:00,69.8,54.8,28.91,WSW,242,2.2,6.3,59,0.00,,,0.00,VWS V14.00,2013-09-02 22:14:00,
2013-09-02 18:19:00,69.6,54.7,28.91,NNE,30,2.2,8.1,59,0.00,,,0.00,VWS V14.00,2013-09-02 22:19:00,
2013-09-02 18:24:00,69.4,54.0,28.91,SSW,204,0.0,8.1,58,0.00,,,0.00,VWS V14.00,2013-09-02 22:24:00,
2013-09-02 18:29:00,68.9,54.0,28.91,NNE,18,3.1,8.1,59,0.00,,,0.00,VWS V14.00,2013-09-02 22:29:00,
2013-09-02 18:34:00,68.9,54.5,28.91,NE,36,2.2,4.5,60,0.00,,,0.00,VWS V14.00,2013-09-02 22:34:00,
2013-09-02 18:39:00,68.7,54.3,28.91,NE,36,3.1,5.4,60,0.00,,,0.00,VWS V14.00,2013-09-02 22:39:00,
2013-09-02 18:44:00,68.5,53.2,28.91,West,273,4.9,5.4,58,0.00,,,0.00,VWS V14.00,2013-09-02 22:44:00,
2013-09-02 18:49:00,68.4,53.0,28.91,NNE,21,3.1,7.2,58,0.00,,,0.00,VWS V14.00,2013-09-02 22:49:00,
2013-09-02 18:54:00,67.8,53.4,28.91,NNE,28,0.0,7.2,60,0.00,,,0.00,VWS V14.00,2013-09-02 22:54:00,
2013-09-02 18:59:00,67.3,52.9,28.91,NW,315,0.0,7.2,60,0.00,,,0.00,VWS V14.00,2013-09-02 22:59:00,
2013-09-02 19:04:00,66.9,53.5,28.91,NNE,29,0.0,3.1,62,0.00,,,0.00,VWS V14.00,2013-09-02 23:04:00,
2013-09-02 19:09:00,66.7,53.3,28.91,SSW,195,0.0,5.8,62,0.00,,,0.00,VWS V14.00,2013-09-02 23:09:00,
2013-09-02 19:14:00,66.7,53.8,28.91,West,271,0.0,5.8,63,0.00,,,0.00,VWS V14.00,2013-09-02 23:14:00,
2013-09-02 19:19:00,66.6,53.6,28.91,ENE,61,3.1,7.2,63,0.00,,,0.00,VWS V14.00,2013-09-02 23:19:00,
2013-09-02 19:24:00,66.2,53.2,28.91,NE,53,0.0,7.2,63,0.00,,,0.00,VWS V14.00,2013-09-02 23:24:00,
2013-09-02 19:29:00,66.0,53.5,28.91,NE,50,0.0,7.2,64,0.00,,,0.00,VWS V14.00,2013-09-02 23:29:00,
2013-09-02 19:34:00,65.7,53.2,28.91,North,1,0.0,5.8,64,0.00,,,0.00,VWS V14.00,2013-09-02 23:34:00,
2013-09-02 19:39:00,65.5,53.4,28.91,SSW,210,0.0,5.8,65,0.00,,,0.00,VWS V14.00,2013-09-02 23:39:00,
2013-09-02 19:44:00,65.5,53.4,28.91,North,357,0.0,5.8,65,0.00,,,0.00,VWS V14.00,2013-09-02 23:44:00,
2013-09-02 19:49:00,65.3,53.2,28.94,West,275,3.6,5.8,65,0.00,,,0.00,VWS V14.00,2013-09-02 23:49:00,
2013-09-02 19:54:00,65.1,53.1,28.94,NW,325,0.0,5.8,65,0.00,,,0.00,VWS V14.00,2013-09-02 23:54:00,
2013-09-02 19:59:00,65.1,53.1,28.94,SSE,168,0.0,5.8,65,0.00,,,0.00,VWS V14.00,2013-09-02 23:59:00,
2013-09-02 20:04:00,64.9,52.9,28.94,WSW,241,0.0,6.7,65,0.00,,,0.00,VWS V14.00,2013-09-03 00:04:00,
2013-09-02 20:09:00,64.8,52.3,28.94,West,281,3.1,9.6,64,0.00,,,0.00,VWS V14.00,2013-09-03 00:09:00,
2013-09-02 20:14:00,64.6,51.7,28.94,NNE,30,5.8,9.6,63,0.00,,,0.00,VWS V14.00,2013-09-03 00:14:00,
2013-09-02 20:19:00,64.2,50.9,28.94,WNW,297,0.0,9.6,62,0.00,,,0.00,VWS V14.00,2013-09-03 00:19:00,
2013-09-02 20:24:00,63.9,50.2,28.94,WNW,285,2.7,9.6,61,0.00,,,0.00,VWS V14.00,2013-09-03 00:24:00,
2013-09-02 20:29:00,63.5,50.3,28.94,North,357,0.0,9.6,62,0.00,,,0.00,VWS V14.00,2013-09-03 00:29:00,
2013-09-02 20:34:00,63.1,49.9,28.94,SE,137,0.0,5.4,62,0.00,,,0.00,VWS V14.00,2013-09-03 00:34:00,
2013-09-02 20:39:00,63.0,50.6,28.94,ENE,61,0.0,8.3,64,0.00,,,0.00,VWS V14.00,2013-09-03 00:39:00,
2013-09-02 20:44:00,62.8,50.4,28.94,South,174,0.0,8.3,64,0.00,,,0.00,VWS V14.00,2013-09-03 00:44:00,
2013-09-02 20:49:00,62.6,50.3,28.94,WSW,243,3.1,8.3,64,0.00,,,0.00,VWS V14.00,2013-09-03 00:49:00,
2013-09-02 20:54:00,62.2,50.3,28.94,WSW,258,0.0,8.3,65,0.00,,,0.00,VWS V14.00,2013-09-03 00:54:00,
2013-09-02 20:59:00,61.9,50.4,28.94,NNW,345,2.7,8.3,66,0.00,,,0.00,VWS V14.00,2013-09-03 00:59:00,
2013-09-02 21:04:00,61.9,50.8,28.94,WSW,255,0.0,0.0,67,0.00,,,0.00,VWS V14.00,2013-09-03 01:04:00,
2013-09-02 21:09:00,61.9,51.2,28.94,West,280,0.0,3.6,68,0.00,,,0.00,VWS V14.00,2013-09-03 01:09:00,
2013-09-02 21:14:00,61.9,51.2,28.94,NNE,27,0.0,3.6,68,0.00,,,0.00,VWS V14.00,2013-09-03 01:14:00,
2013-09-02 21:19:00,61.9,50.8,28.94,North,353,0.0,3.6,67,0.00,,,0.00,VWS V14.00,2013-09-03 01:19:00,
2013-09-02 21:24:00,61.9,50.8,28.94,West,280,0.0,3.6,67,0.00,,,0.00,VWS V14.00,2013-09-03 01:24:00,
2013-09-02 21:29:00,61.9,50.8,28.94,West,272,0.0,3.6,67,0.00,,,0.00,VWS V14.00,2013-09-03 01:29:00,
2013-09-02 21:34:00,61.9,50.4,28.97,North,6,0.0,4.5,66,0.00,,,0.00,VWS V14.00,2013-09-03 01:34:00,
2013-09-02 21:39:00,61.7,50.2,28.97,North,10,0.0,4.5,66,0.00,,,0.00,VWS V14.00,2013-09-03 01:39:00,
2013-09-02 21:44:00,61.5,50.1,28.97,NNW,327,5.4,7.6,66,0.00,,,0.00,VWS V14.00,2013-09-03 01:44:00,
2013-09-02 21:49:00,61.3,49.9,28.97,NNW,345,0.0,7.6,66,0.00,,,0.00,VWS V14.00,2013-09-03 01:49:00,
2013-09-02 21:54:00,61.3,49.9,28.97,South,172,3.6,7.6,66,0.00,,,0.00,VWS V14.00,2013-09-03 01:54:00,
2013-09-02 21:59:00,61.3,49.9,28.97,NNW,342,0.0,7.6,66,0.00,,,0.00,VWS V14.00,2013-09-03 01:59:00,
2013-09-02 22:04:00,61.2,49.3,28.97,ENE,59,0.0,4.9,65,0.00,,,0.00,VWS V14.00,2013-09-03 02:04:00,
2013-09-02 22:09:00,61.2,49.3,28.97,South,186,3.1,4.9,65,0.00,,,0.00,VWS V14.00,2013-09-03 02:09:00,
2013-09-02 22:14:00,61.0,49.2,28.97,WSW,255,0.0,4.9,65,0.00,,,0.00,VWS V14.00,2013-09-03 02:14:00,
2013-09-02 22:19:00,61.0,49.2,28.97,NNW,338,2.7,4.9,65,0.00,,,0.00,VWS V14.00,2013-09-03 02:19:00,
2013-09-02 22:24:00,61.0,49.5,28.97,WSW,237,0.0,4.9,66,0.00,,,0.00,VWS V14.00,2013-09-03 02:24:00,
2013-09-02 22:29:00,60.8,49.0,28.97,NW,312,2.7,5.8,65,0.00,,,0.00,VWS V14.00,2013-09-03 02:29:00,
2013-09-02 22:34:00,60.8,49.4,28.97,SSW,199,3.1,3.1,66,0.00,,,0.00,VWS V14.00,2013-09-03 02:34:00,
2013-09-02 22:39:00,60.6,49.2,28.97,NE,40,3.6,4.5,66,0.00,,,0.00,VWS V14.00,2013-09-03 02:39:00,
2013-09-02 22:44:00,60.6,49.2,28.97,North,5,0.0,4.5,66,0.00,,,0.00,VWS V14.00,2013-09-03 02:44:00,
2013-09-02 22:49:00,60.6,49.2,28.97,East,99,0.0,8.1,66,0.00,,,0.00,VWS V14.00,2013-09-03 02:49:00,
2013-09-02 22:54:00,60.6,49.2,28.97,West,276,0.0,8.1,66,0.00,,,0.00,VWS V14.00,2013-09-03 02:54:00,
2013-09-02 22:59:00,60.6,49.2,28.97,North,353,0.0,8.1,66,0.00,,,0.00,VWS V14.00,2013-09-03 02:59:00,
2013-09-02 23:04:00,60.4,49.0,28.97,WSW,252,0.0,4.0,66,0.00,,,0.00,VWS V14.00,2013-09-03 03:04:00,
2013-09-02 23:09:00,60.4,49.4,28.97,West,278,0.0,4.0,67,0.00,,,0.00,VWS V14.00,2013-09-03 03:09:00,
2013-09-02 23:14:00,60.3,49.7,28.97,NE,54,0.0,5.4,68,0.00,,,0.00,VWS V14.00,2013-09-03 03:14:00,
2013-09-02 23:19:00,60.3,49.7,28.97,NNE,23,2.7,5.4,68,0.00,,,0.00,VWS V14.00,2013-09-03 03:19:00,
2013-09-02 23:24:00,60.1,49.9,28.97,East,99,2.2,5.4,69,0.00,,,0.00,VWS V14.00,2013-09-03 03:24:00,
2013-09-02 23:29:00,59.9,50.1,28.97,NW,312,4.0,5.4,70,0.00,,,0.00,VWS V14.00,2013-09-03 03:29:00,
2013-09-02 23:34:00,59.5,50.1,29.00,WNW,282,2.7,5.8,71,0.00,,,0.00,VWS V14.00,2013-09-03 03:34:00,
2013-09-02 23:39:00,59.2,49.8,29.00,NNW,331,4.0,5.8,71,0.00,,,0.00,VWS V14.00,2013-09-03 03:39:00,
2013-09-02 23:44:00,58.8,49.8,29.00,SE,138,2.7,5.8,72,0.00,,,0.00,VWS V14.00,2013-09-03 03:44:00,
2013-09-02 23:49:00,58.5,49.8,29.00,NNE,19,5.4,5.8,73,0.00,,,0.00,VWS V14.00,2013-09-03 03:49:00,
2013-09-02 23:54:00,58.5,50.2,29.00,SW,234,0.0,5.8,74,0.00,,,0.00,VWS V14.00,2013-09-03 03:54:00,